Time;durP1;ratioP1;P1;durP2;ratioP2;P2;SDS_P1;SDS_P2;PMS_P1;PMS_P2;Temp;Humidity;BMP_temperature;BMP_pressure;BME280_temperature;BME280_humidity;BME280_pressure;Samples;Min_cycle;Max_cycle;Signal;HPM_P1;HPM_P2
2023/10/09 00:02:09;;;;;;;11.40;7.07;;;19.60;99.90;;;;;;5013194;28;20037;-70
2023/10/09 00:04:36;;;;;;;9.27;7.38;;;19.60;99.90;;;;;;5013080;28;20025;-69
2023/10/09 00:07:03;;;;;;;10.35;7.85;;;19.60;99.90;;;;;;5013208;28;20167;-70
2023/10/09 00:09:32;;;;;;;9.85;8.30;;;19.60;99.90;;;;;;5013262;28;20018;-71
2023/10/09 00:12:00;;;;;;;9.85;7.30;;;19.60;99.90;;;;;;5012796;28;20474;-70
2023/10/09 00:14:30;;;;;;;11.90;8.52;;;19.60;99.90;;;;;;5013107;28;20026;-69
2023/10/09 00:17:17;;;;;;;11.10;8.13;;;19.60;99.90;;;;;;5013325;28;20378;-70
2023/10/09 00:19:43;;;;;;;10.77;7.93;;;19.60;99.90;;;;;;5013105;28;20379;-70
2023/10/09 00:25:10;;;;;;;11.05;7.97;;;19.50;99.90;;;;;;5016434;28;20042;-69
2023/10/09 00:27:42;;;;;;;12.27;8.20;;;19.60;99.90;;;;;;5011697;28;20018;-71
2023/10/09 00:30:15;;;;;;;10.93;7.68;;;19.60;99.90;;;;;;5012858;28;20100;-72
2023/10/09 00:32:50;;;;;;;9.98;8.43;;;19.60;99.90;;;;;;5012850;28;20022;-69
2023/10/09 00:38:07;;;;;;;11.40;8.30;;;19.50;99.90;;;;;;5013180;28;20036;-73
2023/10/09 00:40:35;;;;;;;10.75;8.25;;;19.50;99.90;;;;;;5012627;28;20072;-72
2023/10/09 00:43:10;;;;;;;11.15;8.30;;;19.40;99.90;;;;;;5012980;28;20033;-72
2023/10/09 00:45:39;;;;;;;13.05;8.20;;;19.50;99.90;;;;;;5012686;28;20426;-72
2023/10/09 00:48:08;;;;;;;10.82;8.13;;;19.50;99.90;;;;;;5012858;28;20026;-73
2023/10/09 00:50:39;;;;;;;15.85;8.85;;;19.50;99.90;;;;;;5015319;28;20022;-69
2023/10/09 00:53:11;;;;;;;12.40;8.68;;;19.50;99.90;;;;;;5016362;28;20026;-72
2023/10/09 00:58:12;;;;;;;11.60;8.53;;;19.50;99.90;;;;;;5015187;28;20457;-71
2023/10/09 01:08:43;;;;;;;11.80;9.38;;;19.50;99.90;;;;;;5016395;28;20034;-70
2023/10/09 01:11:23;;;;;;;12.88;9.27;;;19.50;99.90;;;;;;5016140;28;20385;-72
2023/10/09 01:16:17;;;;;;;12.68;8.70;;;19.40;99.90;;;;;;5016173;28;20096;-73
2023/10/09 01:18:51;;;;;;;9.75;8.52;;;19.50;99.90;;;;;;5014582;28;20030;-72
2023/10/09 01:21:17;;;;;;;14.32;8.70;;;19.50;99.90;;;;;;5014654;28;20080;-73
2023/10/09 01:26:39;;;;;;;12.68;9.30;;;19.50;99.90;;;;;;5016045;28;20037;-70
2023/10/09 01:29:14;;;;;;;13.05;8.70;;;19.50;99.90;;;;;;5015745;28;20114;-69
2023/10/09 01:31:46;;;;;;;12.30;9.25;;;19.50;99.90;;;;;;5015606;28;20034;-70
2023/10/09 01:34:12;;;;;;;10.95;8.77;;;19.40;99.90;;;;;;5015630;28;20081;-71
2023/10/09 01:36:39;;;;;;;10.27;8.75;;;19.40;99.90;;;;;;5015406;28;20030;-70
2023/10/09 01:42:05;;;;;;;15.35;9.73;;;19.40;99.90;;;;;;5015521;28;20033;-70
2023/10/09 01:44:35;;;;;;;15.98;9.25;;;19.40;99.90;;;;;;5015397;28;20374;-70
2023/10/09 01:47:13;;;;;;;12.55;8.80;;;19.40;99.90;;;;;;5015382;28;20030;-69
2023/10/09 01:49:43;;;;;;;13.48;9.27;;;19.40;99.90;;;;;;5015332;28;20025;-69
2023/10/09 01:52:15;;;;;;;15.45;9.55;;;19.40;99.90;;;;;;5015178;28;20364;-69
2023/10/09 01:54:41;;;;;;;10.68;9.45;;;19.30;99.90;;;;;;5015120;28;20097;-69
2023/10/09 01:57:13;;;;;;;13.43;9.55;;;19.40;99.90;;;;;;5015318;28;20033;-69
2023/10/09 01:59:47;;;;;;;11.37;8.87;;;19.30;99.90;;;;;;5014692;28;20025;-69
2023/10/09 02:02:33;;;;;;;12.98;9.30;;;19.40;99.90;;;;;;5014889;28;20347;-69
2023/10/09 02:05:43;;;;;;;12.05;9.70;;;19.40;99.90;;;;;;5015043;28;20479;-69
2023/10/09 02:07:53;;;;;;;12.98;9.38;;;19.30;99.90;;;;;;5017676;28;20034;-68
2023/10/09 02:13:06;;;;;;;10.68;9.02;;;19.20;99.90;;;;;;5015068;28;20041;-70
2023/10/09 02:18:25;;;;;;;11.20;9.27;;;19.20;99.90;;;;;;5015131;28;20042;-70
2023/10/09 02:26:32;;;;;;;10.38;8.93;;;19.30;99.90;;;;;;5014914;28;20103;-70
2023/10/09 02:28:58;;;;;;;12.88;9.63;;;19.30;99.90;;;;;;5014561;28;20026;-70
2023/10/09 02:31:27;;;;;;;14.73;9.70;;;19.30;99.90;;;;;;5014372;28;20026;-70
2023/10/09 02:33:55;;;;;;;14.65;10.13;;;19.20;99.90;;;;;;5014583;28;20101;-70
2023/10/09 02:36:24;;;;;;;12.93;8.93;;;19.20;99.90;;;;;;5012859;28;20014;-69
2023/10/09 02:38:53;;;;;;;12.00;9.68;;;19.20;99.90;;;;;;5014415;28;20021;-69
2023/10/09 02:41:22;;;;;;;12.55;8.95;;;19.10;99.90;;;;;;5014363;28;20033;-70
2023/10/09 02:43:50;;;;;;;12.20;9.43;;;19.10;99.90;;;;;;5014312;28;20071;-70
2023/10/09 02:46:18;;;;;;;11.70;9.43;;;19.10;99.90;;;;;;5014211;28;20471;-70
2023/10/09 02:48:52;;;;;;;13.00;9.52;;;19.20;99.90;;;;;;5014323;28;20464;-70
2023/10/09 02:53:58;;;;;;;13.38;9.38;;;19.10;99.90;;;;;;5014268;28;20386;-69
2023/10/09 02:56:24;;;;;;;11.07;8.70;;;19.10;99.90;;;;;;5014121;28;20455;-69
2023/10/09 02:58:53;;;;;;;10.40;8.73;;;19.10;99.90;;;;;;5014236;28;20025;-70
2023/10/09 03:01:19;;;;;;;12.30;8.60;;;19.20;99.90;;;;;;5013807;28;20047;-70
2023/10/09 03:03:45;;;;;;;11.63;9.93;;;19.10;99.90;;;;;;5014138;28;20510;-69
2023/10/09 03:06:12;;;;;;;13.07;9.75;;;19.10;99.90;;;;;;5013516;28;20069;-69
2023/10/09 03:08:40;;;;;;;13.43;9.65;;;19.10;99.90;;;;;;5014125;28;20033;-70
2023/10/09 03:11:12;;;;;;;15.27;9.35;;;19.10;99.90;;;;;;5013621;28;20057;-70
2023/10/09 03:13:45;;;;;;;12.48;9.48;;;19.00;99.90;;;;;;5013806;28;20533;-69
2023/10/09 03:16:20;;;;;;;;;;;19.00;99.90;;;;;;5013651;28;20026;-69
2023/10/09 03:18:52;;;;;;;12.07;9.90;;;19.00;99.90;;;;;;5014029;28;19964;-70
2023/10/09 03:21:19;;;;;;;15.70;10.48;;;19.00;99.90;;;;;;5013036;28;20033;-70
2023/10/09 03:23:51;;;;;;;15.63;10.45;;;19.00;99.90;;;;;;5013579;28;20080;-69
2023/10/09 03:26:20;;;;;;;12.02;10.32;;;19.00;99.90;;;;;;5013324;28;20038;-69
2023/10/09 03:28:47;;;;;;;15.32;10.70;;;18.90;99.90;;;;;;5013663;28;20026;-69
2023/10/09 03:31:13;;;;;;;15.63;10.13;;;19.00;99.90;;;;;;5013508;28;20022;-70
2023/10/09 03:33:39;;;;;;;13.10;9.57;;;18.90;99.90;;;;;;5013293;28;20036;-69
2023/10/09 03:36:09;;;;;;;12.32;10.38;;;18.90;99.90;;;;;;5013350;28;20022;-69
2023/10/09 03:38:38;;;;;;;11.65;9.05;;;18.90;99.90;;;;;;5013559;28;20022;-69
2023/10/09 03:41:07;;;;;;;12.77;10.23;;;19.00;99.90;;;;;;5013348;28;20496;-69
2023/10/09 03:43:40;;;;;;;13.02;11.05;;;19.00;99.90;;;;;;5013720;28;20099;-70
2023/10/09 03:46:20;;;;;;;15.15;10.35;;;19.00;99.90;;;;;;5013427;28;20029;-69
2023/10/09 03:48:49;;;;;;;14.18;10.60;;;19.00;99.90;;;;;;5013449;28;20022;-70
2023/10/09 03:51:22;;;;;;;11.70;10.40;;;19.00;99.90;;;;;;5013145;28;20420;-70
2023/10/09 03:53:54;;;;;;;12.23;10.75;;;19.00;99.90;;;;;;5013474;28;20545;-69
2023/10/09 03:56:21;;;;;;;14.95;11.10;;;19.00;99.90;;;;;;5013402;28;20029;-69
2023/10/09 03:58:52;;;;;;;14.38;10.93;;;19.00;99.90;;;;;;5013414;28;20467;-69
2023/10/09 04:01:40;;;;;;;13.73;11.00;;;19.00;99.90;;;;;;5013269;28;20033;-70
2023/10/09 04:04:13;;;;;;;14.00;11.50;;;19.00;99.90;;;;;;5012988;28;20021;-69
2023/10/09 04:06:39;;;;;;;14.75;11.90;;;19.00;99.90;;;;;;5013267;28;20038;-69
2023/10/09 04:11:47;;;;;;;17.35;11.90;;;18.90;99.90;;;;;;5013258;28;20025;-68
2023/10/09 04:14:26;;;;;;;16.13;12.07;;;19.00;99.90;;;;;;5013301;28;20022;-68
2023/10/09 04:16:52;;;;;;;13.52;12.05;;;19.00;99.90;;;;;;5013493;28;20033;-69
2023/10/09 04:19:24;;;;;;;15.60;10.18;;;19.00;99.90;;;;;;5013780;28;20491;-69
2023/10/09 04:21:50;;;;;;;13.80;10.93;;;19.00;99.90;;;;;;5013062;28;20018;-70
2023/10/09 04:26:46;;;;;;;14.80;10.73;;;19.20;99.90;;;;;;5017032;28;20478;-70
2023/10/09 04:29:26;;;;;;;14.48;12.25;;;19.20;99.90;;;;;;5016651;28;20075;-69
2023/10/09 04:31:56;;;;;;;16.38;11.63;;;19.20;99.90;;;;;;5016673;28;20030;-70
2023/10/09 04:34:28;;;;;;;12.90;11.55;;;19.20;99.90;;;;;;5016690;28;20374;-70
2023/10/09 04:39:47;;;;;;;14.70;11.38;;;19.20;99.90;;;;;;5011655;28;20069;-70
2023/10/09 04:42:36;;;;;;;14.70;11.25;;;19.20;99.90;;;;;;5012426;28;20029;-70
2023/10/09 04:47:49;;;;;;;14.80;12.30;;;19.20;99.90;;;;;;5013878;28;20136;-70
2023/10/09 04:50:36;;;;;;;14.35;11.77;;;19.20;99.90;;;;;;5012848;28;20030;-70
2023/10/09 04:53:22;;;;;;;15.18;12.32;;;19.20;99.90;;;;;;5012916;28;20120;-70
2023/10/09 04:55:54;;;;;;;16.40;12.48;;;19.20;99.90;;;;;;5014656;28;20026;-71
2023/10/09 04:58:26;;;;;;;14.77;12.95;;;19.10;99.90;;;;;;5016019;28;20018;-71
2023/10/09 05:03:30;;;;;;;20.42;13.73;;;19.20;99.90;;;;;;4996758;28;20026;-70
2023/10/09 05:05:59;;;;;;;14.20;11.98;;;19.20;99.90;;;;;;4996047;28;20102;-71
2023/10/09 05:08:29;;;;;;;16.70;13.23;;;19.20;99.90;;;;;;5025987;28;20035;-75
2023/10/09 05:16:18;;;;;;;19.63;14.73;;;19.10;99.90;;;;;;5015224;28;20082;-74
2023/10/09 05:18:55;;;;;;;18.80;15.20;;;19.10;99.90;;;;;;5015504;28;20459;-74
2023/10/09 05:29:19;;;;;;;19.60;15.93;;;19.10;99.90;;;;;;5014643;28;20402;-73
2023/10/09 05:32:35;;;;;;;19.20;15.82;;;19.10;99.90;;;;;;5010137;28;20029;-70
2023/10/09 05:35:06;;;;;;;21.60;14.50;;;19.10;99.90;;;;;;4985795;28;20027;-69
2023/10/09 05:37:25;;;;;;;17.92;15.02;;;19.10;99.90;;;;;;4995775;28;20030;-69
2023/10/09 05:40:22;;;;;;;19.27;15.80;;;19.10;99.90;;;;;;5008934;28;20113;-70
2023/10/09 05:42:45;;;;;;;19.60;16.92;;;19.10;99.90;;;;;;5015238;28;20018;-74
2023/10/09 05:48:04;;;;;;;23.98;17.95;;;19.10;99.90;;;;;;5015301;28;20038;-72
2023/10/09 05:50:34;;;;;;;20.85;16.85;;;19.10;99.90;;;;;;5015217;28;20479;-73
2023/10/09 06:04:12;;;;;;;20.80;16.60;;;19.00;99.90;;;;;;5012038;28;20147;-73
2023/10/09 06:06:55;;;;;;;19.38;16.88;;;19.00;99.90;;;;;;5015075;28;20065;-71
2023/10/09 06:14:24;;;;;;;21.60;16.65;;;19.00;99.90;;;;;;5013148;28;20029;-73
2023/10/09 06:19:28;;;;;;;21.58;17.75;;;19.00;99.90;;;;;;5013488;28;20030;-71
2023/10/09 06:24:33;;;;;;;21.90;17.60;;;19.00;99.90;;;;;;5014022;28;20026;-67
2023/10/09 06:34:56;;;;;;;22.30;16.42;;;18.90;99.90;;;;;;5014466;28;20050;-68
2023/10/09 06:45:09;;;;;;;23.27;18.10;;;19.00;99.90;;;;;;5014022;28;20068;-67
2023/10/09 06:47:55;;;;;;;25.23;16.77;;;19.00;99.90;;;;;;5012768;28;20426;-67
2023/10/09 06:55:48;;;;;;;23.17;17.55;;;19.00;99.90;;;;;;5014313;28;20390;-67
2023/10/09 06:58:41;;;;;;;23.05;17.17;;;19.00;99.90;;;;;;5012566;28;20026;-67
2023/10/09 07:01:25;;;;;;;20.67;14.88;;;19.00;99.90;;;;;;5013914;28;20079;-68
2023/10/09 07:03:53;;;;;;;20.67;15.90;;;19.00;99.90;;;;;;5013943;28;20040;-68
2023/10/09 07:06:23;;;;;;;20.67;17.80;;;19.00;99.90;;;;;;5013738;28;20045;-67
2023/10/09 07:09:15;;;;;;;22.40;17.13;;;19.00;99.90;;;;;;5014075;28;20033;-68
2023/10/09 07:17:15;;;;;;;24.10;17.15;;;19.00;99.90;;;;;;5013992;28;20045;-70
2023/10/09 07:24:49;;;;;;;16.73;13.05;;;19.00;99.90;;;;;;5013876;28;20038;-69
2023/10/09 07:27:43;;;;;;;20.60;15.88;;;19.10;99.90;;;;;;5013298;28;20029;-68
2023/10/09 07:30:35;;;;;;;16.83;14.90;;;19.10;99.90;;;;;;5013097;28;20392;-67
2023/10/09 07:35:46;;;;;;;18.23;13.18;;;19.10;99.90;;;;;;5013859;28;20030;-67
2023/10/09 07:38:28;;;;;;;20.15;15.68;;;19.10;99.90;;;;;;5013546;28;20033;-67
2023/10/09 07:40:55;;;;;;;16.08;14.27;;;19.10;99.90;;;;;;5013163;28;20094;-67
2023/10/09 07:43:45;;;;;;;18.83;14.50;;;19.10;99.90;;;;;;5013388;28;20070;-70
2023/10/09 07:46:32;;;;;;;20.45;15.15;;;19.10;99.90;;;;;;5013161;28;20033;-68
2023/10/09 07:49:21;;;;;;;18.92;15.60;;;19.10;99.90;;;;;;5013364;28;20466;-69
2023/10/09 07:51:46;;;;;;;18.48;15.60;;;19.10;99.90;;;;;;5013362;28;20041;-68
2023/10/09 07:54:15;;;;;;;17.40;15.32;;;19.20;99.90;;;;;;5013124;28;20025;-67
2023/10/09 07:56:45;;;;;;;15.77;12.10;;;19.20;99.90;;;;;;5013158;28;20049;-67
2023/10/09 07:59:17;;;;;;;18.30;14.60;;;19.20;99.90;;;;;;5015096;28;20050;-69
2023/10/09 08:01:59;;;;;;;14.43;11.93;;;19.20;99.90;;;;;;5017268;28;20033;-67
2023/10/09 08:04:38;;;;;;;20.13;15.20;;;19.20;99.90;;;;;;5015942;28;20022;-67
2023/10/09 08:07:19;;;;;;;21.17;16.38;;;19.20;99.90;;;;;;5017361;28;20048;-68
2023/10/09 08:09:48;;;;;;;18.10;14.30;;;19.20;99.90;;;;;;5017049;28;20061;-67
2023/10/09 08:12:38;;;;;;;17.95;12.05;;;19.20;99.90;;;;;;5017311;28;20269;-68
2023/10/09 08:17:54;;;;;;;17.02;13.75;;;19.20;99.90;;;;;;5017099;28;20426;-68
2023/10/09 08:20:26;;;;;;;16.80;11.63;;;19.20;99.90;;;;;;5015716;28;20021;-67
2023/10/09 08:22:55;;;;;;;19.40;13.18;;;19.20;99.90;;;;;;5016824;28;20030;-67
2023/10/09 08:25:26;;;;;;;19.83;14.30;;;19.20;99.90;;;;;;5016575;28;20030;-67
2023/10/09 08:28:29;;;;;;;16.38;13.38;;;19.30;99.90;;;;;;5016848;28;20449;-67
2023/10/09 08:30:49;;;;;;;;;;;19.30;99.90;;;;;;5017210;28;20038;-66
2023/10/09 08:35:55;;;;;;;15.77;11.73;;;19.30;99.90;;;;;;5017082;28;20029;-68
2023/10/09 08:38:23;;;;;;;15.18;12.80;;;19.30;99.90;;;;;;5016479;28;20463;-67
2023/10/09 08:40:50;;;;;;;15.88;12.55;;;19.30;99.90;;;;;;5016672;28;20109;-72
2023/10/09 08:43:16;;;;;;;13.25;10.35;;;19.30;99.90;;;;;;5016485;28;20033;-72
2023/10/09 08:45:53;;;;;;;19.83;14.13;;;19.30;99.90;;;;;;5016712;28;20105;-68
2023/10/09 08:48:19;;;;;;;15.55;11.30;;;19.40;99.90;;;;;;5016422;28;20054;-68
2023/10/09 08:50:46;;;;;;;21.55;14.30;;;19.40;99.90;;;;;;5016591;28;20474;-68
2023/10/09 08:53:16;;;;;;;15.52;11.60;;;19.40;99.90;;;;;;5016140;28;20034;-67
2023/10/09 08:55:42;;;;;;;15.30;13.68;;;19.40;99.90;;;;;;5016403;28;20065;-68
2023/10/09 08:58:24;;;;;;;14.93;11.85;;;19.50;99.90;;;;;;5015000;28;20145;-67
2023/10/09 09:00:51;;;;;;;;;;;19.50;99.90;;;;;;5016742;28;20482;-68
2023/10/09 09:03:18;;;;;;;15.35;11.57;;;19.60;99.90;;;;;;5016171;28;20269;-70
2023/10/09 09:05:56;;;;;;;20.73;13.85;;;19.60;99.90;;;;;;5016203;28;20109;-69
2023/10/09 09:08:28;;;;;;;17.05;12.40;;;19.50;99.90;;;;;;5015817;28;20053;-68
2023/10/09 09:14:02;;;;;;;17.65;13.35;;;19.50;99.90;;;;;;5015864;28;20553;-67
2023/10/09 09:16:33;;;;;;;15.65;11.15;;;19.60;99.90;;;;;;5015997;28;20032;-68
2023/10/09 09:21:41;;;;;;;16.15;12.88;;;19.50;99.90;;;;;;5015681;28;20371;-67
2023/10/09 09:29:36;;;;;;;17.00;11.98;;;19.70;99.90;;;;;;5015417;28;20053;-69
2023/10/09 09:32:15;;;;;;;15.18;13.00;;;19.60;99.90;;;;;;5014450;28;20060;-69
2023/10/09 09:35:17;;;;;;;14.38;11.07;;;19.60;99.90;;;;;;5015683;28;20021;-71
2023/10/09 09:37:52;;;;;;;16.98;13.55;;;19.60;99.90;;;;;;5014927;28;20025;-70
2023/10/09 09:40:29;;;;;;;17.58;11.65;;;19.60;99.90;;;;;;5013673;28;20080;-69
2023/10/09 09:43:05;;;;;;;15.95;11.63;;;19.60;99.90;;;;;;5015568;28;20029;-70
2023/10/09 09:45:46;;;;;;;19.02;14.80;;;19.60;99.90;;;;;;5015368;28;20068;-69
2023/10/09 09:48:15;;;;;;;17.20;12.73;;;19.70;99.90;;;;;;5006766;28;20018;-70
2023/10/09 09:50:45;;;;;;;17.25;13.93;;;19.70;99.90;;;;;;5013860;28;20041;-69
2023/10/09 09:53:17;;;;;;;19.75;15.40;;;19.70;99.90;;;;;;5010743;28;20025;-70
2023/10/09 09:55:55;;;;;;;;;;;19.70;99.90;;;;;;5015645;28;20112;-70
2023/10/09 09:58:23;;;;;;;28.25;14.77;;;19.70;99.90;;;;;;5014941;28;19906;-71
2023/10/09 10:00:55;;;;;;;15.73;12.77;;;19.70;99.90;;;;;;5015085;28;20018;-70
2023/10/09 10:03:33;;;;;;;18.58;13.13;;;19.70;99.90;;;;;;5015169;28;20029;-70
2023/10/09 10:06:04;;;;;;;19.67;13.73;;;19.80;99.90;;;;;;5014725;28;20029;-70
2023/10/09 10:08:32;;;;;;;18.20;13.82;;;19.80;99.90;;;;;;5014970;28;20109;-70
2023/10/09 10:11:04;;;;;;;19.65;13.27;;;19.80;99.90;;;;;;5015027;28;20493;-71
2023/10/09 10:13:42;;;;;;;20.85;14.52;;;19.80;99.90;;;;;;5015055;28;20026;-71
2023/10/09 10:16:13;;;;;;;19.67;13.90;;;19.90;99.90;;;;;;5014763;28;20037;-71
2023/10/09 10:19:06;;;;;;;22.10;15.13;;;19.90;99.90;;;;;;5013648;28;20510;-70
2023/10/09 10:21:40;;;;;;;18.90;13.27;;;19.90;99.90;;;;;;5012458;28;20029;-70
2023/10/09 10:24:28;;;;;;;17.45;13.15;;;19.90;99.90;;;;;;5013307;28;20017;-70
2023/10/09 10:27:18;;;;;;;16.48;12.55;;;19.90;99.90;;;;;;5014899;28;20062;-70
2023/10/09 10:29:46;;;;;;;17.35;13.85;;;19.90;99.90;;;;;;5014462;28;20112;-70
2023/10/09 10:32:12;;;;;;;18.23;13.02;;;19.90;99.90;;;;;;5014756;28;20467;-70
2023/10/09 10:34:55;;;;;;;18.30;13.25;;;19.90;99.90;;;;;;5014308;28;20057;-70
2023/10/09 10:37:50;;;;;;;16.55;12.52;;;20.00;99.90;;;;;;5014600;28;20037;-70
2023/10/09 10:40:38;;;;;;;21.65;13.68;;;20.00;99.90;;;;;;5014422;28;20022;-70
2023/10/09 10:43:13;;;;;;;16.10;11.95;;;20.00;99.90;;;;;;5014878;28;20018;-70
2023/10/09 10:45:45;;;;;;;17.95;11.88;;;20.00;99.90;;;;;;5014383;28;20070;-70
2023/10/09 10:48:30;;;;;;;19.65;13.77;;;20.00;99.90;;;;;;5014600;28;20026;-70
2023/10/09 10:50:57;;;;;;;18.23;12.85;;;20.00;99.90;;;;;;5011356;28;21326;-71
2023/10/09 10:53:28;;;;;;;17.17;12.68;;;20.10;99.90;;;;;;4993702;28;20033;-70
2023/10/09 10:58:38;;;;;;;19.27;13.48;;;20.10;99.90;;;;;;4999435;28;20034;-70
2023/10/09 11:01:13;;;;;;;16.08;13.18;;;20.10;99.90;;;;;;5013954;28;20422;-70
2023/10/09 11:03:54;;;;;;;18.73;13.10;;;20.10;99.90;;;;;;5013428;28;20041;-70
2023/10/09 11:06:37;;;;;;;20.55;14.38;;;20.10;99.90;;;;;;5012961;28;20038;-70
2023/10/09 11:09:23;;;;;;;;;;;20.20;99.90;;;;;;4993103;28;20057;-69
2023/10/09 11:11:50;;;;;;;16.15;12.38;;;20.20;99.90;;;;;;5012120;28;19909;-70
2023/10/09 11:14:17;;;;;;;18.20;12.30;;;20.20;99.90;;;;;;5012862;28;20036;-68
2023/10/09 11:16:47;;;;;;;13.85;11.27;;;20.20;99.90;;;;;;5013365;28;20523;-71
2023/10/09 11:22:24;;;;;;;20.02;13.38;;;20.30;99.90;;;;;;5013201;28;20030;-70
2023/10/09 11:24:59;;;;;;;16.00;13.50;;;20.30;99.90;;;;;;5013492;28;20399;-70
2023/10/09 11:27:29;;;;;;;15.30;10.90;;;20.30;99.90;;;;;;5008971;28;20028;-71
2023/10/09 11:29:54;;;;;;;17.27;11.27;;;20.30;99.90;;;;;;5013412;28;20052;-71
2023/10/09 11:32:25;;;;;;;16.73;11.88;;;20.30;99.90;;;;;;5011968;28;20096;-70
2023/10/09 11:35:09;;;;;;;14.57;11.35;;;20.30;99.90;;;;;;5013181;28;20211;-70
2023/10/09 11:37:43;;;;;;;16.58;12.57;;;20.40;99.90;;;;;;5013445;28;20014;-68
2023/10/09 11:40:33;;;;;;;20.00;10.82;;;20.40;99.90;;;;;;5013010;28;20034;-70
2023/10/09 11:43:03;;;;;;;21.70;12.30;;;20.40;99.90;;;;;;5013575;28;20096;-70
2023/10/09 11:45:29;;;;;;;18.63;14.15;;;20.40;99.90;;;;;;5013452;28;20483;-71
2023/10/09 11:47:58;;;;;;;19.13;13.88;;;20.40;99.90;;;;;;5013103;28;20022;-70
2023/10/09 11:50:42;;;;;;;20.38;13.85;;;20.40;99.90;;;;;;5013527;28;20036;-70
2023/10/09 11:53:17;;;;;;;15.95;11.50;;;20.50;99.90;;;;;;5013411;28;20064;-70
2023/10/09 11:55:55;;;;;;;16.13;12.23;;;20.50;99.90;;;;;;5013358;28;20018;-70
2023/10/09 11:58:25;;;;;;;17.27;13.20;;;20.50;99.90;;;;;;5013368;28;20026;-70
2023/10/09 12:00:59;;;;;;;20.70;13.70;;;20.50;99.90;;;;;;5013278;28;20101;-70
2023/10/09 12:03:29;;;;;;;17.20;11.00;;;20.50;99.90;;;;;;5013026;28;20022;-70
2023/10/09 12:06:12;;;;;;;15.70;10.38;;;20.60;99.90;;;;;;5013270;28;20098;-71
2023/10/09 12:08:41;;;;;;;16.30;11.10;;;20.60;99.90;;;;;;5012026;28;20025;-70
2023/10/09 12:11:09;;;;;;;19.10;11.45;;;20.60;99.90;;;;;;5013158;28;20061;-70
2023/10/09 12:13:38;;;;;;;15.45;10.45;;;20.60;99.90;;;;;;5007740;28;20499;-70
2023/10/09 12:16:08;;;;;;;15.75;9.73;;;20.70;99.90;;;;;;4993564;28;20124;-70
2023/10/09 12:18:34;;;;;;;15.57;10.80;;;20.60;99.90;;;;;;5005592;28;20117;-70
2023/10/09 12:21:04;;;;;;;17.35;10.57;;;20.60;99.90;;;;;;5013050;28;20026;-70
2023/10/09 12:23:35;;;;;;;11.00;8.63;;;20.60;99.90;;;;;;5009063;28;20060;-70
2023/10/09 12:26:04;;;;;;;20.90;11.38;;;20.70;99.90;;;;;;5008585;28;20087;-70
2023/10/09 12:28:32;;;;;;;14.45;10.25;;;20.70;99.90;;;;;;5010291;28;20034;-70
2023/10/09 12:31:01;;;;;;;18.98;10.98;;;20.70;99.90;;;;;;5007955;28;20513;-70
2023/10/09 12:33:29;;;;;;;15.82;10.23;;;20.70;99.90;;;;;;5011006;28;20100;-70
2023/10/09 12:36:03;;;;;;;10.77;8.25;;;20.70;99.90;;;;;;5006415;28;20054;-70
2023/10/09 12:38:32;;;;;;;14.80;9.63;;;20.70;99.90;;;;;;5010386;28;20088;-70
2023/10/09 12:41:18;;;;;;;13.30;9.05;;;20.80;99.90;;;;;;5007831;28;20057;-70
2023/10/09 12:43:44;;;;;;;14.43;9.63;;;20.70;99.90;;;;;;5012518;28;20022;-70
2023/10/09 12:46:09;;;;;;;14.85;9.27;;;20.80;99.90;;;;;;5014047;28;20044;-70
2023/10/09 12:48:38;;;;;;;12.75;8.63;;;20.80;99.90;;;;;;5014799;28;20426;-71
2023/10/09 12:51:06;;;;;;;13.68;9.52;;;20.80;99.90;;;;;;5016076;28;20025;-70
2023/10/09 12:53:33;;;;;;;14.27;8.93;;;20.80;99.90;;;;;;5014236;28;20029;-70
2023/10/09 12:55:58;;;;;;;15.15;9.77;;;20.80;99.90;;;;;;5016486;28;20037;-70
2023/10/09 12:58:26;;;;;;;16.20;8.75;;;20.80;99.90;;;;;;5016840;28;20029;-70
2023/10/09 13:00:52;;;;;;;14.07;8.48;;;20.80;99.90;;;;;;5015167;28;20021;-70
2023/10/09 13:03:18;;;;;;;12.73;9.60;;;20.80;99.90;;;;;;5016222;28;20048;-70
2023/10/09 13:05:51;;;;;;;12.93;8.95;;;20.80;99.90;;;;;;5016390;28;20038;-70
2023/10/09 13:08:21;;;;;;;14.43;9.77;;;20.90;99.90;;;;;;5015924;28;20025;-70
2023/10/09 13:10:54;;;;;;;15.70;9.93;;;20.90;99.90;;;;;;5012652;28;20030;-70
2023/10/09 13:13:20;;;;;;;13.05;8.20;;;20.90;99.90;;;;;;5013022;28;20490;-70
2023/10/09 13:15:46;;;;;;;13.52;8.18;;;20.90;99.90;;;;;;5013541;28;20030;-70
2023/10/09 13:18:12;;;;;;;10.65;7.80;;;21.00;99.90;;;;;;5013725;28;20440;-70
2023/10/09 13:20:38;;;;;;;12.38;8.10;;;21.00;99.90;;;;;;5015058;28;20026;-70
2023/10/09 13:23:07;;;;;;;11.10;8.20;;;20.90;99.90;;;;;;5013494;28;20044;-71
2023/10/09 13:25:39;;;;;;;15.32;8.35;;;21.00;99.90;;;;;;5013440;28;20545;-70
2023/10/09 13:28:05;;;;;;;11.02;7.53;;;21.00;99.90;;;;;;5013290;28;20379;-70
2023/10/09 13:30:38;;;;;;;13.77;8.90;;;21.00;99.90;;;;;;5013988;28;20026;-70
2023/10/09 13:33:05;;;;;;;16.38;9.25;;;21.00;99.90;;;;;;5013880;28;20053;-70
2023/10/09 13:35:37;;;;;;;13.10;8.70;;;21.00;99.90;;;;;;5014807;28;20029;-70
2023/10/09 13:38:09;;;;;;;;;;;21.00;99.90;;;;;;5015129;28;20029;-70
2023/10/09 13:40:37;;;;;;;11.15;7.45;;;21.10;99.90;;;;;;5014142;28;20302;-70
2023/10/09 13:43:03;;;;;;;13.75;8.55;;;21.00;99.90;;;;;;5014307;28;20095;-70
2023/10/09 13:45:30;;;;;;;12.77;8.23;;;21.00;99.90;;;;;;5014797;28;20041;-70
2023/10/09 13:47:59;;;;;;;17.27;8.90;;;21.00;99.90;;;;;;5014895;28;20365;-70
2023/10/09 13:50:28;;;;;;;13.95;8.77;;;21.00;99.90;;;;;;5008623;28;20071;-70
2023/10/09 13:52:56;;;;;;;16.48;9.93;;;21.00;99.90;;;;;;5014749;28;20046;-70
2023/10/09 13:55:22;;;;;;;12.40;8.23;;;21.10;99.90;;;;;;5012770;28;20014;-71
2023/10/09 13:57:47;;;;;;;12.23;8.10;;;21.10;99.90;;;;;;5016456;28;20036;-70
2023/10/09 14:00:20;;;;;;;13.90;8.38;;;21.10;99.90;;;;;;5023052;28;20160;-71
2023/10/09 14:02:46;;;;;;;16.00;9.98;;;21.10;99.90;;;;;;5021819;28;20026;-70
2023/10/09 14:05:13;;;;;;;14.45;8.20;;;21.10;99.90;;;;;;5018901;28;20029;-70
2023/10/09 14:07:40;;;;;;;20.17;8.75;;;21.10;99.90;;;;;;5011045;28;20030;-71
2023/10/09 14:10:17;;;;;;;16.50;7.55;;;21.20;99.90;;;;;;5004769;28;20096;-70
2023/10/09 14:12:44;;;;;;;9.85;6.30;;;21.20;99.90;;;;;;5004864;28;20425;-72
2023/10/09 14:15:17;;;;;;;10.25;7.00;;;21.20;99.90;;;;;;5034285;28;20478;-71
2023/10/09 14:17:42;;;;;;;10.48;6.35;;;21.20;99.70;;;;;;5015020;28;20498;-71
2023/10/09 14:22:53;;;;;;;12.82;7.43;;;21.30;99.70;;;;;;5014961;28;20045;-70
2023/10/09 14:25:21;;;;;;;9.77;6.50;;;21.30;99.50;;;;;;5025865;28;20036;-72
2023/10/09 14:27:48;;;;;;;11.05;7.53;;;21.30;99.40;;;;;;5014567;28;20080;-72
2023/10/09 14:30:22;;;;;;;11.45;8.55;;;21.20;99.00;;;;;;5011549;28;20112;-70
2023/10/09 14:32:53;;;;;;;10.07;7.90;;;21.30;99.20;;;;;;5012092;28;20034;-69
2023/10/09 14:35:21;;;;;;;8.55;6.57;;;21.30;99.10;;;;;;5011256;28;20153;-70
2023/10/09 14:37:47;;;;;;;12.38;7.07;;;21.30;99.20;;;;;;5018903;28;20030;-71
2023/10/09 14:40:13;;;;;;;12.18;7.50;;;21.30;99.40;;;;;;5009285;28;20025;-69
2023/10/09 14:42:43;;;;;;;10.95;7.47;;;21.30;99.40;;;;;;5005594;28;20398;-70
2023/10/09 14:45:15;;;;;;;10.77;7.25;;;21.30;99.40;;;;;;5010923;28;20065;-69
2023/10/09 14:47:41;;;;;;;12.88;8.20;;;21.30;99.40;;;;;;5005291;28;20061;-70
2023/10/09 14:50:09;;;;;;;12.43;8.23;;;21.30;99.10;;;;;;5011896;28;20033;-70
2023/10/09 14:52:38;;;;;;;10.57;7.50;;;21.30;99.10;;;;;;5010481;28;20387;-70
2023/10/09 14:55:05;;;;;;;13.07;6.80;;;21.30;99.20;;;;;;5011995;28;20026;-69
2023/10/09 14:57:34;;;;;;;13.80;7.60;;;21.30;99.30;;;;;;5013604;28;20018;-69
2023/10/09 15:00:01;;;;;;;9.95;6.72;;;21.30;99.30;;;;;;5013606;28;20037;-69
2023/10/09 15:02:27;;;;;;;11.70;6.93;;;21.30;99.60;;;;;;5012257;28;20022;-69
2023/10/09 15:04:52;;;;;;;12.07;7.18;;;21.30;99.60;;;;;;5006161;28;20038;-70
2023/10/09 15:07:20;;;;;;;10.45;6.80;;;21.30;99.60;;;;;;5008151;28;20038;-70
2023/10/09 15:09:46;;;;;;;12.73;7.32;;;21.40;99.60;;;;;;5010523;28;20471;-70
2023/10/09 15:12:12;;;;;;;10.10;6.40;;;21.40;99.70;;;;;;5009905;28;20105;-70
2023/10/09 15:14:39;;;;;;;9.48;6.72;;;21.40;99.50;;;;;;5011511;28;20443;-70
2023/10/09 15:17:06;;;;;;;10.60;7.30;;;21.40;99.50;;;;;;5012675;28;20080;-70
2023/10/09 15:19:32;;;;;;;9.20;6.38;;;21.40;99.60;;;;;;5011951;28;20030;-71
2023/10/09 15:21:59;;;;;;;12.00;6.13;;;21.30;99.40;;;;;;5013026;28;20026;-70
2023/10/09 15:24:27;;;;;;;10.38;6.88;;;21.30;99.60;;;;;;5011752;28;20053;-70
2023/10/09 15:26:56;;;;;;;9.38;5.43;;;21.40;99.50;;;;;;5012917;28;20042;-70